sensor_id;sensor_type;location;lat;lon;timestamp;P1;durP1;ratioP1;P2;durP2;ratioP2
25437;SDS011;13364;49.084;9.978;2023-04-15T00:01:51;6.65;;;5.65;;
25437;SDS011;13364;49.084;9.978;2023-04-15T00:04:19;6.00;;;4.75;;
25437;SDS011;13364;49.084;9.978;2023-04-15T00:06:50;5.93;;;4.25;;
25437;SDS011;13364;49.084;9.978;2023-04-15T00:09:20;5.97;;;4.20;;
25437;SDS011;13364;49.084;9.978;2023-04-15T00:11:47;5.07;;;3.75;;
25437;SDS011;13364;49.084;9.978;2023-04-15T00:14:16;4.30;;;3.45;;
25437;SDS011;13364;49.084;9.978;2023-04-15T00:16:43;4.15;;;3.28;;
25437;SDS011;13364;49.084;9.978;2023-04-15T00:19:10;5.88;;;3.67;;
25437;SDS011;13364;49.084;9.978;2023-04-15T00:21:38;4.35;;;3.88;;
25437;SDS011;13364;49.084;9.978;2023-04-15T00:24:05;5.40;;;3.75;;
25437;SDS011;13364;49.084;9.978;2023-04-15T00:26:32;6.55;;;3.60;;
25437;SDS011;13364;49.084;9.978;2023-04-15T00:28:59;5.80;;;4.03;;
25437;SDS011;13364;49.084;9.978;2023-04-15T00:31:27;5.88;;;4.05;;
25437;SDS011;13364;49.084;9.978;2023-04-15T00:33:54;4.75;;;3.65;;
25437;SDS011;13364;49.084;9.978;2023-04-15T00:36:21;3.83;;;3.35;;
25437;SDS011;13364;49.084;9.978;2023-04-15T00:38:49;4.80;;;4.10;;
25437;SDS011;13364;49.084;9.978;2023-04-15T00:41:16;8.07;;;5.05;;
25437;SDS011;13364;49.084;9.978;2023-04-15T00:43:44;6.85;;;5.10;;
25437;SDS011;13364;49.084;9.978;2023-04-15T00:46:12;8.88;;;4.78;;
25437;SDS011;13364;49.084;9.978;2023-04-15T00:48:41;6.60;;;4.88;;
25437;SDS011;13364;49.084;9.978;2023-04-15T00:51:09;7.28;;;4.80;;
25437;SDS011;13364;49.084;9.978;2023-04-15T00:53:36;6.18;;;4.88;;
25437;SDS011;13364;49.084;9.978;2023-04-15T00:56:04;9.50;;;4.53;;
25437;SDS011;13364;49.084;9.978;2023-04-15T00:58:31;8.02;;;5.07;;
25437;SDS011;13364;49.084;9.978;2023-04-15T01:00:59;6.68;;;4.65;;
25437;SDS011;13364;49.084;9.978;2023-04-15T01:03:28;5.23;;;4.33;;
25437;SDS011;13364;49.084;9.978;2023-04-15T01:05:55;7.97;;;4.80;;
25437;SDS011;13364;49.084;9.978;2023-04-15T01:08:28;6.90;;;4.47;;
25437;SDS011;13364;49.084;9.978;2023-04-15T01:10:57;5.57;;;4.40;;
25437;SDS011;13364;49.084;9.978;2023-04-15T01:13:27;8.68;;;4.43;;
25437;SDS011;13364;49.084;9.978;2023-04-15T01:15:55;6.63;;;4.38;;
25437;SDS011;13364;49.084;9.978;2023-04-15T01:18:23;6.70;;;4.20;;
25437;SDS011;13364;49.084;9.978;2023-04-15T01:20:50;5.07;;;3.33;;
25437;SDS011;13364;49.084;9.978;2023-04-15T01:23:17;4.65;;;3.45;;
25437;SDS011;13364;49.084;9.978;2023-04-15T01:25:45;6.35;;;3.95;;
25437;SDS011;13364;49.084;9.978;2023-04-15T01:28:12;5.57;;;3.72;;
25437;SDS011;13364;49.084;9.978;2023-04-15T01:30:40;7.40;;;4.22;;
25437;SDS011;13364;49.084;9.978;2023-04-15T01:33:07;4.30;;;3.70;;
25437;SDS011;13364;49.084;9.978;2023-04-15T01:35:34;6.57;;;4.80;;
25437;SDS011;13364;49.084;9.978;2023-04-15T01:38:05;6.63;;;4.63;;
25437;SDS011;13364;49.084;9.978;2023-04-15T01:40:36;6.85;;;3.72;;
25437;SDS011;13364;49.084;9.978;2023-04-15T01:43:03;8.98;;;4.60;;
25437;SDS011;13364;49.084;9.978;2023-04-15T01:45:32;8.80;;;4.53;;
25437;SDS011;13364;49.084;9.978;2023-04-15T01:48:02;5.75;;;4.38;;
25437;SDS011;13364;49.084;9.978;2023-04-15T01:50:29;5.55;;;4.47;;
25437;SDS011;13364;49.084;9.978;2023-04-15T01:52:56;6.05;;;4.25;;
25437;SDS011;13364;49.084;9.978;2023-04-15T01:55:24;9.73;;;4.90;;
25437;SDS011;13364;49.084;9.978;2023-04-15T01:57:51;6.80;;;4.65;;
25437;SDS011;13364;49.084;9.978;2023-04-15T02:00:19;6.63;;;4.55;;
25437;SDS011;13364;49.084;9.978;2023-04-15T02:02:47;5.57;;;4.13;;
25437;SDS011;13364;49.084;9.978;2023-04-15T02:05:15;7.20;;;4.55;;
25437;SDS011;13364;49.084;9.978;2023-04-15T02:07:45;10.55;;;4.82;;
25437;SDS011;13364;49.084;9.978;2023-04-15T02:10:13;5.05;;;3.90;;
25437;SDS011;13364;49.084;9.978;2023-04-15T02:12:42;5.90;;;3.90;;
25437;SDS011;13364;49.084;9.978;2023-04-15T02:15:10;7.45;;;3.88;;
25437;SDS011;13364;49.084;9.978;2023-04-15T02:17:37;6.03;;;3.65;;
25437;SDS011;13364;49.084;9.978;2023-04-15T02:20:04;7.00;;;3.78;;
25437;SDS011;13364;49.084;9.978;2023-04-15T02:22:31;6.97;;;3.45;;
25437;SDS011;13364;49.084;9.978;2023-04-15T02:24:58;5.00;;;3.85;;
25437;SDS011;13364;49.084;9.978;2023-04-15T02:27:25;5.03;;;3.83;;
25437;SDS011;13364;49.084;9.978;2023-04-15T02:29:54;6.20;;;3.97;;
25437;SDS011;13364;49.084;9.978;2023-04-15T02:32:21;6.45;;;4.05;;
25437;SDS011;13364;49.084;9.978;2023-04-15T02:34:49;5.40;;;4.35;;
25437;SDS011;13364;49.084;9.978;2023-04-15T02:37:17;4.63;;;3.83;;
25437;SDS011;13364;49.084;9.978;2023-04-15T02:39:45;6.47;;;4.03;;
25437;SDS011;13364;49.084;9.978;2023-04-15T02:42:14;4.57;;;4.10;;
25437;SDS011;13364;49.084;9.978;2023-04-15T02:44:41;6.07;;;3.97;;
25437;SDS011;13364;49.084;9.978;2023-04-15T02:47:09;7.78;;;4.07;;
25437;SDS011;13364;49.084;9.978;2023-04-15T02:49:40;5.45;;;3.55;;
25437;SDS011;13364;49.084;9.978;2023-04-15T02:52:07;6.88;;;3.80;;
25437;SDS011;13364;49.084;9.978;2023-04-15T02:54:35;4.95;;;4.15;;
25437;SDS011;13364;49.084;9.978;2023-04-15T02:57:02;5.63;;;4.20;;
25437;SDS011;13364;49.084;9.978;2023-04-15T03:01:59;6.45;;;4.20;;
25437;SDS011;13364;49.084;9.978;2023-04-15T03:04:26;4.95;;;3.90;;
25437;SDS011;13364;49.084;9.978;2023-04-15T03:06:55;5.17;;;4.10;;
25437;SDS011;13364;49.084;9.978;2023-04-15T03:09:23;6.88;;;3.47;;
25437;SDS011;13364;49.084;9.978;2023-04-15T03:11:51;5.00;;;3.42;;
25437;SDS011;13364;49.084;9.978;2023-04-15T03:14:20;3.75;;;3.05;;
25437;SDS011;13364;49.084;9.978;2023-04-15T03:16:47;4.93;;;3.05;;
25437;SDS011;13364;49.084;9.978;2023-04-15T03:19:16;4.88;;;3.00;;
25437;SDS011;13364;49.084;9.978;2023-04-15T03:21:43;3.22;;;2.88;;
25437;SDS011;13364;49.084;9.978;2023-04-15T03:24:10;6.72;;;2.35;;
25437;SDS011;13364;49.084;9.978;2023-04-15T03:26:38;3.53;;;2.67;;
25437;SDS011;13364;49.084;9.978;2023-04-15T03:29:10;4.18;;;2.70;;
25437;SDS011;13364;49.084;9.978;2023-04-15T03:31:38;4.75;;;3.45;;
25437;SDS011;13364;49.084;9.978;2023-04-15T03:34:05;5.78;;;2.58;;
25437;SDS011;13364;49.084;9.978;2023-04-15T03:36:33;4.13;;;2.90;;
25437;SDS011;13364;49.084;9.978;2023-04-15T03:39:00;3.78;;;2.80;;
25437;SDS011;13364;49.084;9.978;2023-04-15T03:43:58;3.22;;;2.80;;
25437;SDS011;13364;49.084;9.978;2023-04-15T03:46:25;4.50;;;3.10;;
25437;SDS011;13364;49.084;9.978;2023-04-15T03:48:52;5.63;;;3.30;;
25437;SDS011;13364;49.084;9.978;2023-04-15T03:51:19;4.40;;;3.15;;
25437;SDS011;13364;49.084;9.978;2023-04-15T03:53:46;4.10;;;3.00;;
25437;SDS011;13364;49.084;9.978;2023-04-15T03:56:13;3.55;;;2.95;;
25437;SDS011;13364;49.084;9.978;2023-04-15T03:58:41;5.47;;;3.20;;
25437;SDS011;13364;49.084;9.978;2023-04-15T04:01:08;3.47;;;3.17;;
25437;SDS011;13364;49.084;9.978;2023-04-15T04:03:35;4.55;;;3.45;;
25437;SDS011;13364;49.084;9.978;2023-04-15T04:06:03;4.35;;;3.35;;
25437;SDS011;13364;49.084;9.978;2023-04-15T04:08:30;5.88;;;3.45;;
25437;SDS011;13364;49.084;9.978;2023-04-15T04:10:57;6.30;;;3.55;;
25437;SDS011;13364;49.084;9.978;2023-04-15T04:13:24;7.45;;;4.10;;
25437;SDS011;13364;49.084;9.978;2023-04-15T04:15:51;3.97;;;3.33;;
25437;SDS011;13364;49.084;9.978;2023-04-15T04:18:18;5.65;;;3.17;;
25437;SDS011;13364;49.084;9.978;2023-04-15T04:20:46;6.45;;;3.65;;
25437;SDS011;13364;49.084;9.978;2023-04-15T04:23:13;5.38;;;3.00;;
25437;SDS011;13364;49.084;9.978;2023-04-15T04:25:40;5.55;;;2.78;;
25437;SDS011;13364;49.084;9.978;2023-04-15T04:28:07;5.25;;;3.55;;
25437;SDS011;13364;49.084;9.978;2023-04-15T04:30:34;6.18;;;3.20;;
25437;SDS011;13364;49.084;9.978;2023-04-15T04:33:02;4.03;;;3.55;;
25437;SDS011;13364;49.084;9.978;2023-04-15T04:35:29;8.40;;;3.95;;
25437;SDS011;13364;49.084;9.978;2023-04-15T04:40:27;4.93;;;3.28;;
25437;SDS011;13364;49.084;9.978;2023-04-15T04:42:54;6.25;;;4.00;;
25437;SDS011;13364;49.084;9.978;2023-04-15T04:45:21;3.72;;;3.42;;
25437;SDS011;13364;49.084;9.978;2023-04-15T04:47:49;4.80;;;3.22;;
25437;SDS011;13364;49.084;9.978;2023-04-15T04:50:16;3.22;;;2.88;;
25437;SDS011;13364;49.084;9.978;2023-04-15T04:52:43;5.47;;;3.67;;
25437;SDS011;13364;49.084;9.978;2023-04-15T04:55:10;4.80;;;3.58;;
25437;SDS011;13364;49.084;9.978;2023-04-15T04:57:37;5.20;;;3.90;;
25437;SDS011;13364;49.084;9.978;2023-04-15T05:00:05;4.30;;;3.50;;
25437;SDS011;13364;49.084;9.978;2023-04-15T05:02:34;6.03;;;3.55;;
25437;SDS011;13364;49.084;9.978;2023-04-15T05:05:01;8.35;;;3.63;;
25437;SDS011;13364;49.084;9.978;2023-04-15T05:07:28;4.60;;;3.65;;
25437;SDS011;13364;49.084;9.978;2023-04-15T05:09:55;6.47;;;4.32;;
25437;SDS011;13364;49.084;9.978;2023-04-15T05:12:27;4.55;;;3.85;;
25437;SDS011;13364;49.084;9.978;2023-04-15T05:14:54;4.18;;;3.50;;
25437;SDS011;13364;49.084;9.978;2023-04-15T05:17:21;5.90;;;3.72;;
25437;SDS011;13364;49.084;9.978;2023-04-15T05:19:48;5.85;;;3.83;;
25437;SDS011;13364;49.084;9.978;2023-04-15T05:22:15;4.63;;;3.67;;
25437;SDS011;13364;49.084;9.978;2023-04-15T05:24:42;5.68;;;3.38;;
25437;SDS011;13364;49.084;9.978;2023-04-15T05:27:09;6.32;;;3.40;;
25437;SDS011;13364;49.084;9.978;2023-04-15T05:29:37;5.13;;;3.70;;
25437;SDS011;13364;49.084;9.978;2023-04-15T05:32:04;5.63;;;3.15;;
25437;SDS011;13364;49.084;9.978;2023-04-15T05:34:31;4.80;;;3.00;;
25437;SDS011;13364;49.084;9.978;2023-04-15T05:36:59;4.70;;;3.88;;
25437;SDS011;13364;49.084;9.978;2023-04-15T05:39:26;7.80;;;4.13;;
25437;SDS011;13364;49.084;9.978;2023-04-15T05:41:53;5.28;;;3.67;;
25437;SDS011;13364;49.084;9.978;2023-04-15T05:44:20;6.55;;;3.90;;
25437;SDS011;13364;49.084;9.978;2023-04-15T05:46:47;7.03;;;3.40;;
25437;SDS011;13364;49.084;9.978;2023-04-15T05:49:14;6.65;;;4.13;;
25437;SDS011;13364;49.084;9.978;2023-04-15T05:51:41;6.57;;;5.00;;
25437;SDS011;13364;49.084;9.978;2023-04-15T05:54:08;8.15;;;6.78;;
25437;SDS011;13364;49.084;9.978;2023-04-15T05:56:35;11.10;;;7.20;;
25437;SDS011;13364;49.084;9.978;2023-04-15T05:59:02;9.98;;;7.20;;
25437;SDS011;13364;49.084;9.978;2023-04-15T06:01:29;9.32;;;6.75;;
25437;SDS011;13364;49.084;9.978;2023-04-15T06:03:56;15.88;;;9.55;;
25437;SDS011;13364;49.084;9.978;2023-04-15T06:06:23;10.25;;;7.28;;
25437;SDS011;13364;49.084;9.978;2023-04-15T06:08:50;8.35;;;6.88;;
25437;SDS011;13364;49.084;9.978;2023-04-15T06:11:19;9.52;;;5.95;;
25437;SDS011;13364;49.084;9.978;2023-04-15T06:16:14;10.75;;;5.70;;
25437;SDS011;13364;49.084;9.978;2023-04-15T06:18:41;8.52;;;5.30;;
25437;SDS011;13364;49.084;9.978;2023-04-15T06:21:08;8.15;;;5.80;;
25437;SDS011;13364;49.084;9.978;2023-04-15T06:23:35;7.15;;;4.78;;
25437;SDS011;13364;49.084;9.978;2023-04-15T06:26:03;7.15;;;4.75;;
25437;SDS011;13364;49.084;9.978;2023-04-15T06:28:31;7.10;;;4.30;;
25437;SDS011;13364;49.084;9.978;2023-04-15T06:30:58;7.88;;;4.57;;
25437;SDS011;13364;49.084;9.978;2023-04-15T06:33:26;6.38;;;4.40;;
25437;SDS011;13364;49.084;9.978;2023-04-15T06:35:54;9.60;;;4.72;;
25437;SDS011;13364;49.084;9.978;2023-04-15T06:38:21;7.82;;;4.75;;
25437;SDS011;13364;49.084;9.978;2023-04-15T06:40:48;9.10;;;5.13;;
25437;SDS011;13364;49.084;9.978;2023-04-15T06:43:15;7.15;;;4.03;;
25437;SDS011;13364;49.084;9.978;2023-04-15T06:45:43;8.38;;;5.32;;
25437;SDS011;13364;49.084;9.978;2023-04-15T06:48:10;5.70;;;4.90;;
25437;SDS011;13364;49.084;9.978;2023-04-15T06:50:37;5.38;;;4.55;;
25437;SDS011;13364;49.084;9.978;2023-04-15T06:53:04;8.82;;;5.15;;
25437;SDS011;13364;49.084;9.978;2023-04-15T06:55:31;7.60;;;5.00;;
25437;SDS011;13364;49.084;9.978;2023-04-15T06:57:59;6.60;;;4.20;;
25437;SDS011;13364;49.084;9.978;2023-04-15T07:00:26;5.85;;;4.18;;
25437;SDS011;13364;49.084;9.978;2023-04-15T07:02:54;7.10;;;3.75;;
25437;SDS011;13364;49.084;9.978;2023-04-15T07:05:22;6.70;;;3.80;;
25437;SDS011;13364;49.084;9.978;2023-04-15T07:07:50;8.37;;;3.70;;
25437;SDS011;13364;49.084;9.978;2023-04-15T07:10:18;4.43;;;3.47;;
25437;SDS011;13364;49.084;9.978;2023-04-15T07:12:46;10.35;;;3.35;;
25437;SDS011;13364;49.084;9.978;2023-04-15T07:15:14;4.55;;;3.28;;
25437;SDS011;13364;49.084;9.978;2023-04-15T07:17:41;7.68;;;3.90;;
25437;SDS011;13364;49.084;9.978;2023-04-15T07:20:11;4.80;;;3.80;;
25437;SDS011;13364;49.084;9.978;2023-04-15T07:22:38;5.07;;;4.10;;
25437;SDS011;13364;49.084;9.978;2023-04-15T07:25:06;5.10;;;3.58;;
25437;SDS011;13364;49.084;9.978;2023-04-15T07:27:34;5.75;;;3.60;;
25437;SDS011;13364;49.084;9.978;2023-04-15T07:30:01;5.57;;;3.67;;
25437;SDS011;13364;49.084;9.978;2023-04-15T07:32:28;6.90;;;3.67;;
25437;SDS011;13364;49.084;9.978;2023-04-15T07:35:00;17.15;;;4.22;;
25437;SDS011;13364;49.084;9.978;2023-04-15T07:37:32;4.67;;;3.80;;
25437;SDS011;13364;49.084;9.978;2023-04-15T07:39:59;4.60;;;3.13;;
25437;SDS011;13364;49.084;9.978;2023-04-15T07:42:27;5.40;;;3.80;;
25437;SDS011;13364;49.084;9.978;2023-04-15T07:44:54;5.80;;;4.30;;
25437;SDS011;13364;49.084;9.978;2023-04-15T07:47:23;6.85;;;3.80;;
25437;SDS011;13364;49.084;9.978;2023-04-15T07:49:51;4.32;;;3.42;;
25437;SDS011;13364;49.084;9.978;2023-04-15T07:52:18;7.15;;;3.22;;
25437;SDS011;13364;49.084;9.978;2023-04-15T07:54:45;5.07;;;3.45;;
25437;SDS011;13364;49.084;9.978;2023-04-15T07:57:12;4.97;;;3.67;;
25437;SDS011;13364;49.084;9.978;2023-04-15T07:59:39;6.10;;;4.03;;
25437;SDS011;13364;49.084;9.978;2023-04-15T08:02:07;5.75;;;3.65;;
25437;SDS011;13364;49.084;9.978;2023-04-15T08:04:35;7.13;;;3.60;;
25437;SDS011;13364;49.084;9.978;2023-04-15T08:07:03;6.20;;;3.70;;
25437;SDS011;13364;49.084;9.978;2023-04-15T08:09:30;4.38;;;3.85;;
25437;SDS011;13364;49.084;9.978;2023-04-15T08:11:57;4.35;;;3.35;;
25437;SDS011;13364;49.084;9.978;2023-04-15T08:14:24;6.28;;;3.90;;
25437;SDS011;13364;49.084;9.978;2023-04-15T08:16:51;6.07;;;3.78;;
25437;SDS011;13364;49.084;9.978;2023-04-15T08:19:18;5.05;;;3.78;;
25437;SDS011;13364;49.084;9.978;2023-04-15T08:21:46;5.53;;;3.65;;
25437;SDS011;13364;49.084;9.978;2023-04-15T08:24:13;8.00;;;4.60;;
25437;SDS011;13364;49.084;9.978;2023-04-15T08:26:41;8.63;;;4.57;;
25437;SDS011;13364;49.084;9.978;2023-04-15T08:29:08;6.53;;;4.90;;
25437;SDS011;13364;49.084;9.978;2023-04-15T08:31:35;9.57;;;4.68;;
25437;SDS011;13364;49.084;9.978;2023-04-15T08:34:02;6.65;;;4.40;;
25437;SDS011;13364;49.084;9.978;2023-04-15T08:36:29;7.93;;;4.18;;
25437;SDS011;13364;49.084;9.978;2023-04-15T08:38:58;10.52;;;4.60;;
25437;SDS011;13364;49.084;9.978;2023-04-15T08:41:28;7.50;;;4.97;;
25437;SDS011;13364;49.084;9.978;2023-04-15T08:44:05;8.55;;;4.60;;
25437;SDS011;13364;49.084;9.978;2023-04-15T08:46:33;8.15;;;5.38;;
25437;SDS011;13364;49.084;9.978;2023-04-15T08:49:02;7.10;;;4.60;;
25437;SDS011;13364;49.084;9.978;2023-04-15T08:51:30;4.80;;;3.78;;
25437;SDS011;13364;49.084;9.978;2023-04-15T08:54:01;7.88;;;4.45;;
25437;SDS011;13364;49.084;9.978;2023-04-15T08:58:59;8.43;;;4.30;;
25437;SDS011;13364;49.084;9.978;2023-04-15T09:01:27;6.75;;;4.20;;
25437;SDS011;13364;49.084;9.978;2023-04-15T09:03:55;6.75;;;4.93;;
25437;SDS011;13364;49.084;9.978;2023-04-15T09:06:23;6.05;;;4.70;;
25437;SDS011;13364;49.084;9.978;2023-04-15T09:08:53;7.03;;;5.53;;
25437;SDS011;13364;49.084;9.978;2023-04-15T09:11:20;6.30;;;5.43;;
25437;SDS011;13364;49.084;9.978;2023-04-15T09:13:48;7.88;;;5.88;;
25437;SDS011;13364;49.084;9.978;2023-04-15T09:16:15;9.27;;;6.35;;
25437;SDS011;13364;49.084;9.978;2023-04-15T09:18:42;6.90;;;5.75;;
25437;SDS011;13364;49.084;9.978;2023-04-15T09:21:13;7.65;;;5.63;;
25437;SDS011;13364;49.084;9.978;2023-04-15T09:23:59;10.32;;;6.05;;
25437;SDS011;13364;49.084;9.978;2023-04-15T09:26:34;9.32;;;6.82;;
25437;SDS011;13364;49.084;9.978;2023-04-15T09:29:03;10.27;;;6.43;;
25437;SDS011;13364;49.084;9.978;2023-04-15T09:31:35;9.20;;;6.10;;
25437;SDS011;13364;49.084;9.978;2023-04-15T09:34:03;9.80;;;6.25;;
25437;SDS011;13364;49.084;9.978;2023-04-15T09:39:16;9.38;;;5.82;;
25437;SDS011;13364;49.084;9.978;2023-04-15T09:41:43;9.20;;;5.57;;
25437;SDS011;13364;49.084;9.978;2023-04-15T09:44:23;10.38;;;5.85;;
25437;SDS011;13364;49.084;9.978;2023-04-15T09:46:51;8.73;;;5.82;;
25437;SDS011;13364;49.084;9.978;2023-04-15T09:49:18;8.85;;;5.82;;
25437;SDS011;13364;49.084;9.978;2023-04-15T09:51:46;5.95;;;5.13;;
25437;SDS011;13364;49.084;9.978;2023-04-15T09:54:36;6.93;;;5.28;;
25437;SDS011;13364;49.084;9.978;2023-04-15T09:57:04;8.05;;;5.43;;
25437;SDS011;13364;49.084;9.978;2023-04-15T09:59:32;5.88;;;5.22;;
25437;SDS011;13364;49.084;9.978;2023-04-15T10:01:59;6.40;;;5.53;;
25437;SDS011;13364;49.084;9.978;2023-04-15T10:04:30;6.90;;;5.20;;
25437;SDS011;13364;49.084;9.978;2023-04-15T10:07:02;6.10;;;5.20;;
25437;SDS011;13364;49.084;9.978;2023-04-15T10:09:31;9.65;;;4.85;;
25437;SDS011;13364;49.084;9.978;2023-04-15T10:12:00;7.13;;;5.60;;
25437;SDS011;13364;49.084;9.978;2023-04-15T10:14:33;6.85;;;4.95;;
25437;SDS011;13364;49.084;9.978;2023-04-15T10:17:04;9.07;;;5.68;;
25437;SDS011;13364;49.084;9.978;2023-04-15T10:19:35;6.90;;;4.90;;
25437;SDS011;13364;49.084;9.978;2023-04-15T10:22:03;5.90;;;4.47;;
25437;SDS011;13364;49.084;9.978;2023-04-15T10:24:30;8.73;;;5.25;;
25437;SDS011;13364;49.084;9.978;2023-04-15T10:26:58;6.65;;;5.35;;
25437;SDS011;13364;49.084;9.978;2023-04-15T10:29:26;8.10;;;4.82;;
25437;SDS011;13364;49.084;9.978;2023-04-15T10:31:54;7.18;;;5.22;;
25437;SDS011;13364;49.084;9.978;2023-04-15T10:34:22;7.03;;;5.22;;
25437;SDS011;13364;49.084;9.978;2023-04-15T10:36:53;6.43;;;5.18;;
25437;SDS011;13364;49.084;9.978;2023-04-15T10:44:32;7.25;;;5.13;;
25437;SDS011;13364;49.084;9.978;2023-04-15T10:47:07;10.70;;;5.57;;
25437;SDS011;13364;49.084;9.978;2023-04-15T10:49:46;8.05;;;5.70;;
25437;SDS011;13364;49.084;9.978;2023-04-15T10:52:22;7.97;;;5.13;;
25437;SDS011;13364;49.084;9.978;2023-04-15T10:55:00;7.03;;;5.35;;
25437;SDS011;13364;49.084;9.978;2023-04-15T10:57:33;7.35;;;5.82;;
25437;SDS011;13364;49.084;9.978;2023-04-15T11:00:15;7.03;;;5.05;;
25437;SDS011;13364;49.084;9.978;2023-04-15T11:02:45;7.57;;;5.13;;
25437;SDS011;13364;49.084;9.978;2023-04-15T11:05:19;7.85;;;5.00;;
25437;SDS011;13364;49.084;9.978;2023-04-15T11:07:48;6.43;;;5.55;;
25437;SDS011;13364;49.084;9.978;2023-04-15T11:12:57;9.00;;;5.50;;
25437;SDS011;13364;49.084;9.978;2023-04-15T11:20:50;6.68;;;5.25;;
25437;SDS011;13364;49.084;9.978;2023-04-15T11:26:12;7.97;;;5.60;;
25437;SDS011;13364;49.084;9.978;2023-04-15T11:28:40;7.93;;;5.57;;
25437;SDS011;13364;49.084;9.978;2023-04-15T11:31:14;7.72;;;6.30;;
25437;SDS011;13364;49.084;9.978;2023-04-15T11:33:52;5.85;;;5.20;;
25437;SDS011;13364;49.084;9.978;2023-04-15T11:36:25;21.80;;;13.35;;
25437;SDS011;13364;49.084;9.978;2023-04-15T11:38:53;9.05;;;6.47;;
25437;SDS011;13364;49.084;9.978;2023-04-15T11:41:24;6.28;;;5.68;;
25437;SDS011;13364;49.084;9.978;2023-04-15T11:43:52;8.05;;;5.70;;
25437;SDS011;13364;49.084;9.978;2023-04-15T11:46:19;8.35;;;5.78;;
25437;SDS011;13364;49.084;9.978;2023-04-15T11:48:48;5.40;;;4.53;;
25437;SDS011;13364;49.084;9.978;2023-04-15T11:51:15;6.93;;;4.47;;
25437;SDS011;13364;49.084;9.978;2023-04-15T11:53:49;6.85;;;4.15;;
25437;SDS011;13364;49.084;9.978;2023-04-15T11:56:21;4.65;;;3.53;;
25437;SDS011;13364;49.084;9.978;2023-04-15T11:58:53;4.50;;;3.40;;
25437;SDS011;13364;49.084;9.978;2023-04-15T12:01:35;3.53;;;3.22;;
25437;SDS011;13364;49.084;9.978;2023-04-15T12:04:15;4.07;;;3.17;;
25437;SDS011;13364;49.084;9.978;2023-04-15T12:06:50;3.65;;;2.50;;
25437;SDS011;13364;49.084;9.978;2023-04-15T12:09:17;4.15;;;2.88;;
25437;SDS011;13364;49.084;9.978;2023-04-15T12:11:46;2.78;;;2.50;;
25437;SDS011;13364;49.084;9.978;2023-04-15T12:16:56;4.20;;;2.42;;
25437;SDS011;13364;49.084;9.978;2023-04-15T12:19:27;4.43;;;2.75;;
25437;SDS011;13364;49.084;9.978;2023-04-15T12:22:05;6.03;;;2.60;;
25437;SDS011;13364;49.084;9.978;2023-04-15T12:24:36;4.10;;;2.55;;
25437;SDS011;13364;49.084;9.978;2023-04-15T12:27:08;3.58;;;2.92;;
25437;SDS011;13364;49.084;9.978;2023-04-15T12:29:37;3.47;;;3.05;;
25437;SDS011;13364;49.084;9.978;2023-04-15T12:32:12;3.78;;;3.28;;
25437;SDS011;13364;49.084;9.978;2023-04-15T12:34:42;4.20;;;2.53;;
25437;SDS011;13364;49.084;9.978;2023-04-15T12:37:19;5.35;;;3.10;;
25437;SDS011;13364;49.084;9.978;2023-04-15T12:39:47;3.03;;;2.35;;
25437;SDS011;13364;49.084;9.978;2023-04-15T12:42:15;4.28;;;2.53;;
25437;SDS011;13364;49.084;9.978;2023-04-15T12:44:46;4.40;;;2.30;;
25437;SDS011;13364;49.084;9.978;2023-04-15T12:47:13;5.75;;;2.55;;
25437;SDS011;13364;49.084;9.978;2023-04-15T12:49:40;3.38;;;2.30;;
25437;SDS011;13364;49.084;9.978;2023-04-15T12:52:07;2.90;;;2.40;;
25437;SDS011;13364;49.084;9.978;2023-04-15T12:54:34;3.92;;;2.42;;
25437;SDS011;13364;49.084;9.978;2023-04-15T12:57:02;4.75;;;2.60;;
25437;SDS011;13364;49.084;9.978;2023-04-15T12:59:32;5.15;;;2.55;;
25437;SDS011;13364;49.084;9.978;2023-04-15T13:02:00;4.10;;;2.42;;
25437;SDS011;13364;49.084;9.978;2023-04-15T13:04:28;3.55;;;2.25;;
25437;SDS011;13364;49.084;9.978;2023-04-15T13:06:57;4.85;;;2.35;;
25437;SDS011;13364;49.084;9.978;2023-04-15T13:09:24;3.08;;;2.35;;
25437;SDS011;13364;49.084;9.978;2023-04-15T13:11:51;2.40;;;2.10;;
25437;SDS011;13364;49.084;9.978;2023-04-15T13:14:20;2.88;;;2.67;;
25437;SDS011;13364;49.084;9.978;2023-04-15T13:16:47;3.72;;;1.90;;
25437;SDS011;13364;49.084;9.978;2023-04-15T13:19:14;4.07;;;2.00;;
25437;SDS011;13364;49.084;9.978;2023-04-15T13:21:41;5.38;;;2.00;;
25437;SDS011;13364;49.084;9.978;2023-04-15T13:24:08;3.85;;;2.22;;
25437;SDS011;13364;49.084;9.978;2023-04-15T13:26:35;2.95;;;2.30;;
25437;SDS011;13364;49.084;9.978;2023-04-15T13:29:03;2.47;;;2.10;;
25437;SDS011;13364;49.084;9.978;2023-04-15T13:31:30;3.05;;;1.90;;
25437;SDS011;13364;49.084;9.978;2023-04-15T13:33:57;4.88;;;2.50;;
25437;SDS011;13364;49.084;9.978;2023-04-15T13:36:24;2.20;;;2.00;;
25437;SDS011;13364;49.084;9.978;2023-04-15T13:38:52;3.05;;;1.98;;
25437;SDS011;13364;49.084;9.978;2023-04-15T13:41:20;2.15;;;1.83;;
25437;SDS011;13364;49.084;9.978;2023-04-15T13:43:47;2.70;;;2.00;;
25437;SDS011;13364;49.084;9.978;2023-04-15T13:46:14;2.60;;;1.80;;
25437;SDS011;13364;49.084;9.978;2023-04-15T13:48:42;2.40;;;1.60;;
25437;SDS011;13364;49.084;9.978;2023-04-15T13:51:09;3.33;;;2.13;;
25437;SDS011;13364;49.084;9.978;2023-04-15T13:53:36;2.40;;;2.20;;
25437;SDS011;13364;49.084;9.978;2023-04-15T13:56:05;2.80;;;1.65;;
25437;SDS011;13364;49.084;9.978;2023-04-15T13:58:34;2.20;;;1.87;;
25437;SDS011;13364;49.084;9.978;2023-04-15T14:01:02;2.45;;;1.75;;
25437;SDS011;13364;49.084;9.978;2023-04-15T14:03:32;1.95;;;1.75;;
25437;SDS011;13364;49.084;9.978;2023-04-15T14:06:00;4.83;;;2.03;;
25437;SDS011;13364;49.084;9.978;2023-04-15T14:08:28;1.85;;;1.75;;
25437;SDS011;13364;49.084;9.978;2023-04-15T14:10:56;2.85;;;1.88;;
25437;SDS011;13364;49.084;9.978;2023-04-15T14:13:23;2.00;;;1.80;;
25437;SDS011;13364;49.084;9.978;2023-04-15T14:15:50;2.97;;;1.60;;
25437;SDS011;13364;49.084;9.978;2023-04-15T14:18:17;2.22;;;1.77;;
25437;SDS011;13364;49.084;9.978;2023-04-15T14:20:45;1.73;;;1.48;;
25437;SDS011;13364;49.084;9.978;2023-04-15T14:23:12;1.85;;;1.75;;
25437;SDS011;13364;49.084;9.978;2023-04-15T14:25:39;2.67;;;1.90;;
25437;SDS011;13364;49.084;9.978;2023-04-15T14:28:07;1.63;;;1.20;;
25437;SDS011;13364;49.084;9.978;2023-04-15T14:30:34;1.95;;;1.63;;
25437;SDS011;13364;49.084;9.978;2023-04-15T14:33:01;1.58;;;1.40;;
25437;SDS011;13364;49.084;9.978;2023-04-15T14:35:29;1.70;;;1.60;;
25437;SDS011;13364;49.084;9.978;2023-04-15T14:37:56;1.48;;;1.38;;
25437;SDS011;13364;49.084;9.978;2023-04-15T14:40:24;1.65;;;1.50;;
25437;SDS011;13364;49.084;9.978;2023-04-15T14:42:51;1.23;;;1.10;;
25437;SDS011;13364;49.084;9.978;2023-04-15T14:45:18;1.30;;;1.20;;
25437;SDS011;13364;49.084;9.978;2023-04-15T14:47:45;2.15;;;1.40;;
25437;SDS011;13364;49.084;9.978;2023-04-15T14:50:19;1.75;;;1.17;;
25437;SDS011;13364;49.084;9.978;2023-04-15T14:52:47;0.95;;;0.90;;
25437;SDS011;13364;49.084;9.978;2023-04-15T14:55:14;3.70;;;1.60;;
25437;SDS011;13364;49.084;9.978;2023-04-15T14:57:41;1.60;;;1.50;;
25437;SDS011;13364;49.084;9.978;2023-04-15T15:00:09;2.00;;;1.60;;
25437;SDS011;13364;49.084;9.978;2023-04-15T15:02:41;1.88;;;1.48;;
25437;SDS011;13364;49.084;9.978;2023-04-15T15:05:09;1.60;;;1.50;;
25437;SDS011;13364;49.084;9.978;2023-04-15T15:07:37;1.55;;;1.45;;
25437;SDS011;13364;49.084;9.978;2023-04-15T15:10:06;3.60;;;1.60;;
25437;SDS011;13364;49.084;9.978;2023-04-15T15:12:33;2.13;;;1.63;;
25437;SDS011;13364;49.084;9.978;2023-04-15T15:15:01;1.73;;;1.42;;
25437;SDS011;13364;49.084;9.978;2023-04-15T15:17:45;2.38;;;1.67;;
25437;SDS011;13364;49.084;9.978;2023-04-15T15:20:12;1.92;;;1.73;;
25437;SDS011;13364;49.084;9.978;2023-04-15T15:22:39;2.00;;;1.77;;
25437;SDS011;13364;49.084;9.978;2023-04-15T15:25:06;1.40;;;1.30;;
25437;SDS011;13364;49.084;9.978;2023-04-15T15:27:33;1.40;;;1.23;;
25437;SDS011;13364;49.084;9.978;2023-04-15T15:30:03;2.00;;;1.58;;